sensor_id;sensor_type;location;lat;lon;timestamp;P1;durP1;ratioP1;P2;durP2;ratioP2
21010;SDS011;10663;42.714;23.274;2022-11-24T00:00:31;14.05;;;9.82;;
21010;SDS011;10663;42.714;23.274;2022-11-24T00:02:02;15.23;;;10.27;;
21010;SDS011;10663;42.714;23.274;2022-11-24T00:03:33;14.73;;;9.57;;
21010;SDS011;10663;42.714;23.274;2022-11-24T00:05:04;17.13;;;10.35;;
21010;SDS011;10663;42.714;23.274;2022-11-24T00:06:36;15.57;;;10.53;;
21010;SDS011;10663;42.714;23.274;2022-11-24T00:08:07;15.32;;;11.73;;
21010;SDS011;10663;42.714;23.274;2022-11-24T00:09:38;16.10;;;11.77;;
21010;SDS011;10663;42.714;23.274;2022-11-24T00:11:10;19.77;;;14.27;;
21010;SDS011;10663;42.714;23.274;2022-11-24T00:12:42;21.33;;;14.52;;
21010;SDS011;10663;42.714;23.274;2022-11-24T00:14:13;17.33;;;13.40;;
21010;SDS011;10663;42.714;23.274;2022-11-24T00:15:44;21.25;;;15.68;;
21010;SDS011;10663;42.714;23.274;2022-11-24T00:17:15;22.88;;;16.90;;
21010;SDS011;10663;42.714;23.274;2022-11-24T00:18:46;20.80;;;14.98;;
21010;SDS011;10663;42.714;23.274;2022-11-24T00:20:18;23.45;;;16.35;;
21010;SDS011;10663;42.714;23.274;2022-11-24T00:21:49;24.50;;;19.15;;
21010;SDS011;10663;42.714;23.274;2022-11-24T00:23:20;27.83;;;20.83;;
21010;SDS011;10663;42.714;23.274;2022-11-24T00:24:51;33.45;;;25.52;;
21010;SDS011;10663;42.714;23.274;2022-11-24T00:26:31;36.92;;;29.08;;
21010;SDS011;10663;42.714;23.274;2022-11-24T00:28:04;35.47;;;27.42;;
21010;SDS011;10663;42.714;23.274;2022-11-24T00:29:34;38.88;;;29.77;;
21010;SDS011;10663;42.714;23.274;2022-11-24T00:31:13;34.03;;;26.90;;
21010;SDS011;10663;42.714;23.274;2022-11-24T00:32:46;37.17;;;28.73;;
21010;SDS011;10663;42.714;23.274;2022-11-24T00:34:17;46.35;;;36.80;;
21010;SDS011;10663;42.714;23.274;2022-11-24T00:35:57;49.70;;;39.33;;
21010;SDS011;10663;42.714;23.274;2022-11-24T00:37:29;48.13;;;38.28;;
21010;SDS011;10663;42.714;23.274;2022-11-24T00:39:04;47.55;;;37.10;;
21010;SDS011;10663;42.714;23.274;2022-11-24T00:40:36;44.05;;;35.60;;
21010;SDS011;10663;42.714;23.274;2022-11-24T00:42:07;47.45;;;36.70;;
21010;SDS011;10663;42.714;23.274;2022-11-24T00:43:38;47.78;;;37.80;;
21010;SDS011;10663;42.714;23.274;2022-11-24T00:45:09;52.80;;;41.58;;
21010;SDS011;10663;42.714;23.274;2022-11-24T00:46:40;45.60;;;35.35;;
21010;SDS011;10663;42.714;23.274;2022-11-24T00:48:11;45.10;;;36.20;;
21010;SDS011;10663;42.714;23.274;2022-11-24T00:49:42;42.25;;;32.88;;
21010;SDS011;10663;42.714;23.274;2022-11-24T00:51:14;38.10;;;29.67;;
21010;SDS011;10663;42.714;23.274;2022-11-24T00:52:46;35.30;;;28.40;;
21010;SDS011;10663;42.714;23.274;2022-11-24T00:54:17;35.20;;;27.42;;
21010;SDS011;10663;42.714;23.274;2022-11-24T00:55:48;32.72;;;24.77;;
21010;SDS011;10663;42.714;23.274;2022-11-24T00:57:20;32.95;;;24.33;;
21010;SDS011;10663;42.714;23.274;2022-11-24T00:58:51;30.90;;;21.98;;
21010;SDS011;10663;42.714;23.274;2022-11-24T01:00:22;23.48;;;15.85;;
21010;SDS011;10663;42.714;23.274;2022-11-24T01:01:53;24.27;;;18.23;;
21010;SDS011;10663;42.714;23.274;2022-11-24T01:03:24;24.63;;;20.13;;
21010;SDS011;10663;42.714;23.274;2022-11-24T01:04:55;32.40;;;25.33;;
21010;SDS011;10663;42.714;23.274;2022-11-24T01:06:26;36.43;;;28.13;;
21010;SDS011;10663;42.714;23.274;2022-11-24T01:07:58;39.65;;;30.02;;
21010;SDS011;10663;42.714;23.274;2022-11-24T01:09:29;44.97;;;33.10;;
21010;SDS011;10663;42.714;23.274;2022-11-24T01:11:13;44.77;;;34.37;;
21010;SDS011;10663;42.714;23.274;2022-11-24T01:12:55;37.53;;;27.23;;
21010;SDS011;10663;42.714;23.274;2022-11-24T01:14:26;34.35;;;26.38;;
21010;SDS011;10663;42.714;23.274;2022-11-24T01:15:58;33.45;;;24.10;;
21010;SDS011;10663;42.714;23.274;2022-11-24T01:17:28;27.67;;;19.80;;
21010;SDS011;10663;42.714;23.274;2022-11-24T01:18:59;22.67;;;16.45;;
21010;SDS011;10663;42.714;23.274;2022-11-24T01:20:31;21.55;;;13.82;;
21010;SDS011;10663;42.714;23.274;2022-11-24T01:22:02;19.88;;;14.07;;
21010;SDS011;10663;42.714;23.274;2022-11-24T01:23:32;26.67;;;17.98;;
21010;SDS011;10663;42.714;23.274;2022-11-24T01:25:10;22.30;;;16.98;;
21010;SDS011;10663;42.714;23.274;2022-11-24T01:26:41;29.67;;;21.88;;
21010;SDS011;10663;42.714;23.274;2022-11-24T01:28:12;40.90;;;29.95;;
21010;SDS011;10663;42.714;23.274;2022-11-24T01:29:43;34.60;;;27.52;;
21010;SDS011;10663;42.714;23.274;2022-11-24T01:31:14;38.78;;;27.40;;
21010;SDS011;10663;42.714;23.274;2022-11-24T01:32:46;32.97;;;25.40;;
21010;SDS011;10663;42.714;23.274;2022-11-24T01:34:16;30.65;;;22.13;;
21010;SDS011;10663;42.714;23.274;2022-11-24T01:35:47;28.95;;;22.73;;
21010;SDS011;10663;42.714;23.274;2022-11-24T01:37:18;41.85;;;28.77;;
21010;SDS011;10663;42.714;23.274;2022-11-24T01:38:49;37.87;;;27.53;;
21010;SDS011;10663;42.714;23.274;2022-11-24T01:40:20;38.22;;;25.48;;
21010;SDS011;10663;42.714;23.274;2022-11-24T01:41:51;27.13;;;19.98;;
21010;SDS011;10663;42.714;23.274;2022-11-24T01:43:22;32.43;;;23.27;;
21010;SDS011;10663;42.714;23.274;2022-11-24T01:47:28;30.52;;;22.77;;
21010;SDS011;10663;42.714;23.274;2022-11-24T01:49:20;29.77;;;22.48;;
21010;SDS011;10663;42.714;23.274;2022-11-24T01:51:16;30.25;;;21.83;;
21010;SDS011;10663;42.714;23.274;2022-11-24T01:52:56;29.23;;;22.17;;
21010;SDS011;10663;42.714;23.274;2022-11-24T01:54:32;25.42;;;19.40;;
21010;SDS011;10663;42.714;23.274;2022-11-24T01:56:21;27.20;;;21.67;;
21010;SDS011;10663;42.714;23.274;2022-11-24T01:57:57;30.58;;;23.27;;
21010;SDS011;10663;42.714;23.274;2022-11-24T01:59:34;31.08;;;22.92;;
21010;SDS011;10663;42.714;23.274;2022-11-24T02:01:06;31.13;;;22.75;;
21010;SDS011;10663;42.714;23.274;2022-11-24T02:02:37;32.05;;;23.15;;
21010;SDS011;10663;42.714;23.274;2022-11-24T02:04:10;31.55;;;22.88;;
21010;SDS011;10663;42.714;23.274;2022-11-24T02:07:26;37.65;;;25.58;;
21010;SDS011;10663;42.714;23.274;2022-11-24T02:08:57;37.33;;;26.80;;
21010;SDS011;10663;42.714;23.274;2022-11-24T02:10:33;37.10;;;24.98;;
21010;SDS011;10663;42.714;23.274;2022-11-24T02:12:05;37.63;;;25.70;;
21010;SDS011;10663;42.714;23.274;2022-11-24T02:13:37;35.45;;;24.38;;
21010;SDS011;10663;42.714;23.274;2022-11-24T02:15:09;32.33;;;21.15;;
21010;SDS011;10663;42.714;23.274;2022-11-24T02:16:41;32.30;;;20.90;;
21010;SDS011;10663;42.714;23.274;2022-11-24T02:18:17;27.55;;;19.63;;
21010;SDS011;10663;42.714;23.274;2022-11-24T02:19:55;30.23;;;19.67;;
21010;SDS011;10663;42.714;23.274;2022-11-24T02:21:28;28.48;;;18.20;;
21010;SDS011;10663;42.714;23.274;2022-11-24T02:23:04;29.63;;;18.60;;
21010;SDS011;10663;42.714;23.274;2022-11-24T02:24:47;29.40;;;18.73;;
21010;SDS011;10663;42.714;23.274;2022-11-24T02:26:29;28.65;;;18.60;;
21010;SDS011;10663;42.714;23.274;2022-11-24T02:28:08;30.00;;;18.13;;
21010;SDS011;10663;42.714;23.274;2022-11-24T02:29:42;26.27;;;17.48;;
21010;SDS011;10663;42.714;23.274;2022-11-24T02:31:13;27.67;;;16.60;;
21010;SDS011;10663;42.714;23.274;2022-11-24T02:32:44;25.80;;;16.57;;
21010;SDS011;10663;42.714;23.274;2022-11-24T02:34:14;28.70;;;16.60;;
21010;SDS011;10663;42.714;23.274;2022-11-24T02:35:45;21.63;;;15.17;;
21010;SDS011;10663;42.714;23.274;2022-11-24T02:37:16;24.90;;;15.40;;
21010;SDS011;10663;42.714;23.274;2022-11-24T02:38:47;26.10;;;15.03;;
21010;SDS011;10663;42.714;23.274;2022-11-24T02:40:21;22.70;;;15.27;;
21010;SDS011;10663;42.714;23.274;2022-11-24T02:41:56;27.23;;;15.68;;
21010;SDS011;10663;42.714;23.274;2022-11-24T02:43:32;25.03;;;16.10;;
21010;SDS011;10663;42.714;23.274;2022-11-24T02:45:07;24.07;;;16.20;;
21010;SDS011;10663;42.714;23.274;2022-11-24T02:46:39;25.38;;;16.45;;
21010;SDS011;10663;42.714;23.274;2022-11-24T02:48:11;26.70;;;16.75;;
21010;SDS011;10663;42.714;23.274;2022-11-24T02:49:44;24.00;;;16.27;;
21010;SDS011;10663;42.714;23.274;2022-11-24T02:51:14;24.73;;;16.07;;
21010;SDS011;10663;42.714;23.274;2022-11-24T02:52:45;24.07;;;15.43;;
21010;SDS011;10663;42.714;23.274;2022-11-24T02:54:16;23.85;;;15.80;;
21010;SDS011;10663;42.714;23.274;2022-11-24T02:55:47;23.27;;;15.63;;
21010;SDS011;10663;42.714;23.274;2022-11-24T02:57:18;24.40;;;15.98;;
21010;SDS011;10663;42.714;23.274;2022-11-24T02:58:49;25.10;;;15.20;;
21010;SDS011;10663;42.714;23.274;2022-11-24T03:00:19;23.27;;;14.82;;
21010;SDS011;10663;42.714;23.274;2022-11-24T03:01:51;24.02;;;14.98;;
21010;SDS011;10663;42.714;23.274;2022-11-24T03:03:22;23.42;;;15.15;;
21010;SDS011;10663;42.714;23.274;2022-11-24T03:04:54;22.63;;;14.93;;
21010;SDS011;10663;42.714;23.274;2022-11-24T03:06:24;21.87;;;14.33;;
21010;SDS011;10663;42.714;23.274;2022-11-24T03:07:55;22.20;;;15.57;;
21010;SDS011;10663;42.714;23.274;2022-11-24T03:09:26;20.70;;;14.52;;
21010;SDS011;10663;42.714;23.274;2022-11-24T03:10:57;26.67;;;16.00;;
21010;SDS011;10663;42.714;23.274;2022-11-24T03:12:28;25.10;;;15.47;;
21010;SDS011;10663;42.714;23.274;2022-11-24T03:13:59;25.13;;;14.83;;
21010;SDS011;10663;42.714;23.274;2022-11-24T03:15:30;22.48;;;14.95;;
21010;SDS011;10663;42.714;23.274;2022-11-24T03:17:00;26.13;;;15.88;;
21010;SDS011;10663;42.714;23.274;2022-11-24T03:18:31;22.80;;;15.80;;
21010;SDS011;10663;42.714;23.274;2022-11-24T03:20:02;25.92;;;15.90;;
21010;SDS011;10663;42.714;23.274;2022-11-24T03:21:34;24.20;;;15.55;;
21010;SDS011;10663;42.714;23.274;2022-11-24T03:23:05;24.08;;;15.25;;
21010;SDS011;10663;42.714;23.274;2022-11-24T03:24:36;25.38;;;15.68;;
21010;SDS011;10663;42.714;23.274;2022-11-24T03:26:08;26.00;;;15.80;;
21010;SDS011;10663;42.714;23.274;2022-11-24T03:27:41;24.20;;;15.27;;
21010;SDS011;10663;42.714;23.274;2022-11-24T03:29:11;22.75;;;15.93;;
21010;SDS011;10663;42.714;23.274;2022-11-24T03:30:42;20.88;;;14.48;;
21010;SDS011;10663;42.714;23.274;2022-11-24T03:32:13;22.60;;;13.38;;
21010;SDS011;10663;42.714;23.274;2022-11-24T03:33:44;20.40;;;12.73;;
21010;SDS011;10663;42.714;23.274;2022-11-24T03:35:15;19.90;;;13.63;;
21010;SDS011;10663;42.714;23.274;2022-11-24T03:36:46;23.45;;;13.40;;
21010;SDS011;10663;42.714;23.274;2022-11-24T03:38:17;23.40;;;13.52;;
21010;SDS011;10663;42.714;23.274;2022-11-24T03:39:48;22.88;;;13.85;;
21010;SDS011;10663;42.714;23.274;2022-11-24T03:41:19;22.10;;;14.55;;
21010;SDS011;10663;42.714;23.274;2022-11-24T03:42:49;22.05;;;13.52;;
21010;SDS011;10663;42.714;23.274;2022-11-24T03:44:20;20.92;;;14.43;;
21010;SDS011;10663;42.714;23.274;2022-11-24T03:45:51;19.42;;;13.77;;
21010;SDS011;10663;42.714;23.274;2022-11-24T03:47:22;24.05;;;13.80;;
21010;SDS011;10663;42.714;23.274;2022-11-24T03:48:53;24.63;;;13.60;;
21010;SDS011;10663;42.714;23.274;2022-11-24T03:50:24;21.37;;;13.10;;
21010;SDS011;10663;42.714;23.274;2022-11-24T03:51:55;21.17;;;13.50;;
21010;SDS011;10663;42.714;23.274;2022-11-24T03:53:27;19.48;;;11.88;;
21010;SDS011;10663;42.714;23.274;2022-11-24T03:54:59;20.23;;;13.52;;
21010;SDS011;10663;42.714;23.274;2022-11-24T03:56:30;24.83;;;15.15;;
21010;SDS011;10663;42.714;23.274;2022-11-24T03:58:01;23.17;;;15.02;;
21010;SDS011;10663;42.714;23.274;2022-11-24T03:59:32;22.52;;;13.80;;
21010;SDS011;10663;42.714;23.274;2022-11-24T04:01:02;17.67;;;11.23;;
21010;SDS011;10663;42.714;23.274;2022-11-24T04:02:33;19.85;;;12.13;;
21010;SDS011;10663;42.714;23.274;2022-11-24T04:04:04;19.50;;;13.68;;
21010;SDS011;10663;42.714;23.274;2022-11-24T04:05:35;22.80;;;14.13;;
21010;SDS011;10663;42.714;23.274;2022-11-24T04:07:06;20.52;;;13.80;;
21010;SDS011;10663;42.714;23.274;2022-11-24T04:08:37;24.98;;;14.07;;
21010;SDS011;10663;42.714;23.274;2022-11-24T04:10:08;21.33;;;14.43;;
21010;SDS011;10663;42.714;23.274;2022-11-24T04:11:39;21.67;;;14.33;;
21010;SDS011;10663;42.714;23.274;2022-11-24T04:13:28;22.33;;;15.07;;
21010;SDS011;10663;42.714;23.274;2022-11-24T04:14:59;21.40;;;14.27;;
21010;SDS011;10663;42.714;23.274;2022-11-24T04:16:29;24.33;;;14.52;;
21010;SDS011;10663;42.714;23.274;2022-11-24T04:18:00;24.47;;;14.97;;
21010;SDS011;10663;42.714;23.274;2022-11-24T04:19:31;21.33;;;14.30;;
21010;SDS011;10663;42.714;23.274;2022-11-24T04:21:02;22.08;;;14.80;;
21010;SDS011;10663;42.714;23.274;2022-11-24T04:22:32;22.20;;;14.98;;
21010;SDS011;10663;42.714;23.274;2022-11-24T04:24:03;24.20;;;14.98;;
21010;SDS011;10663;42.714;23.274;2022-11-24T04:25:34;23.35;;;15.23;;
21010;SDS011;10663;42.714;23.274;2022-11-24T04:27:05;23.88;;;15.35;;
21010;SDS011;10663;42.714;23.274;2022-11-24T04:28:36;24.95;;;15.02;;
21010;SDS011;10663;42.714;23.274;2022-11-24T04:30:08;23.63;;;16.00;;
21010;SDS011;10663;42.714;23.274;2022-11-24T04:31:39;29.10;;;17.02;;
21010;SDS011;10663;42.714;23.274;2022-11-24T04:33:10;28.80;;;18.42;;
21010;SDS011;10663;42.714;23.274;2022-11-24T04:34:41;28.10;;;18.67;;
21010;SDS011;10663;42.714;23.274;2022-11-24T04:36:12;34.08;;;22.42;;
21010;SDS011;10663;42.714;23.274;2022-11-24T04:37:43;35.00;;;22.15;;
21010;SDS011;10663;42.714;23.274;2022-11-24T04:39:14;29.73;;;20.73;;
21010;SDS011;10663;42.714;23.274;2022-11-24T04:40:45;34.45;;;21.15;;
21010;SDS011;10663;42.714;23.274;2022-11-24T04:42:16;29.20;;;20.13;;
21010;SDS011;10663;42.714;23.274;2022-11-24T04:43:49;29.90;;;19.42;;
21010;SDS011;10663;42.714;23.274;2022-11-24T04:45:21;30.50;;;20.15;;
21010;SDS011;10663;42.714;23.274;2022-11-24T04:46:53;30.10;;;21.13;;
21010;SDS011;10663;42.714;23.274;2022-11-24T04:48:23;31.80;;;20.53;;
21010;SDS011;10663;42.714;23.274;2022-11-24T04:49:54;33.20;;;22.37;;
21010;SDS011;10663;42.714;23.274;2022-11-24T04:51:25;32.60;;;21.95;;
21010;SDS011;10663;42.714;23.274;2022-11-24T04:52:56;33.40;;;22.03;;
21010;SDS011;10663;42.714;23.274;2022-11-24T04:54:27;31.13;;;20.80;;
21010;SDS011;10663;42.714;23.274;2022-11-24T04:55:58;36.10;;;23.00;;
21010;SDS011;10663;42.714;23.274;2022-11-24T04:57:29;36.42;;;22.67;;
21010;SDS011;10663;42.714;23.274;2022-11-24T04:58:59;34.17;;;23.17;;
21010;SDS011;10663;42.714;23.274;2022-11-24T05:00:30;35.95;;;23.17;;
21010;SDS011;10663;42.714;23.274;2022-11-24T05:02:01;34.08;;;23.15;;
21010;SDS011;10663;42.714;23.274;2022-11-24T05:03:32;34.70;;;23.58;;
21010;SDS011;10663;42.714;23.274;2022-11-24T05:05:04;34.10;;;22.92;;
21010;SDS011;10663;42.714;23.274;2022-11-24T05:06:38;36.30;;;23.90;;
21010;SDS011;10663;42.714;23.274;2022-11-24T05:08:09;33.78;;;23.58;;
21010;SDS011;10663;42.714;23.274;2022-11-24T05:09:40;32.50;;;24.48;;
21010;SDS011;10663;42.714;23.274;2022-11-24T05:11:29;40.53;;;26.83;;
21010;SDS011;10663;42.714;23.274;2022-11-24T05:13:01;40.13;;;28.23;;
21010;SDS011;10663;42.714;23.274;2022-11-24T05:14:34;46.20;;;29.75;;
21010;SDS011;10663;42.714;23.274;2022-11-24T05:16:05;37.83;;;23.87;;
21010;SDS011;10663;42.714;23.274;2022-11-24T05:17:37;36.78;;;24.73;;
21010;SDS011;10663;42.714;23.274;2022-11-24T05:19:08;33.42;;;23.38;;
21010;SDS011;10663;42.714;23.274;2022-11-24T05:20:39;35.65;;;22.77;;
21010;SDS011;10663;42.714;23.274;2022-11-24T05:22:10;33.95;;;22.70;;
21010;SDS011;10663;42.714;23.274;2022-11-24T05:23:41;31.05;;;20.42;;
21010;SDS011;10663;42.714;23.274;2022-11-24T05:25:12;25.13;;;17.63;;
21010;SDS011;10663;42.714;23.274;2022-11-24T05:26:43;25.70;;;16.90;;
21010;SDS011;10663;42.714;23.274;2022-11-24T05:28:14;27.37;;;18.07;;
21010;SDS011;10663;42.714;23.274;2022-11-24T05:29:45;27.57;;;17.73;;
21010;SDS011;10663;42.714;23.274;2022-11-24T05:31:16;20.67;;;16.00;;
21010;SDS011;10663;42.714;23.274;2022-11-24T05:32:47;28.00;;;17.53;;
21010;SDS011;10663;42.714;23.274;2022-11-24T05:34:18;24.63;;;16.67;;
21010;SDS011;10663;42.714;23.274;2022-11-24T05:35:52;30.77;;;20.05;;
21010;SDS011;10663;42.714;23.274;2022-11-24T05:37:22;31.25;;;21.75;;
21010;SDS011;10663;42.714;23.274;2022-11-24T05:38:55;32.58;;;22.05;;
21010;SDS011;10663;42.714;23.274;2022-11-24T05:40:28;33.72;;;23.85;;
21010;SDS011;10663;42.714;23.274;2022-11-24T05:42:00;32.40;;;23.05;;
21010;SDS011;10663;42.714;23.274;2022-11-24T05:43:51;33.45;;;22.92;;
21010;SDS011;10663;42.714;23.274;2022-11-24T05:45:22;29.83;;;21.33;;
21010;SDS011;10663;42.714;23.274;2022-11-24T05:46:53;28.02;;;17.92;;
21010;SDS011;10663;42.714;23.274;2022-11-24T05:48:24;31.50;;;20.83;;
21010;SDS011;10663;42.714;23.274;2022-11-24T05:49:55;30.03;;;20.93;;
21010;SDS011;10663;42.714;23.274;2022-11-24T05:51:26;28.17;;;19.43;;
21010;SDS011;10663;42.714;23.274;2022-11-24T05:53:00;35.70;;;22.27;;
21010;SDS011;10663;42.714;23.274;2022-11-24T05:54:34;37.88;;;24.52;;
21010;SDS011;10663;42.714;23.274;2022-11-24T05:56:05;39.90;;;24.67;;
21010;SDS011;10663;42.714;23.274;2022-11-24T05:57:36;34.25;;;22.48;;
21010;SDS011;10663;42.714;23.274;2022-11-24T05:59:07;37.70;;;25.08;;
21010;SDS011;10663;42.714;23.274;2022-11-24T06:00:38;36.78;;;24.52;;
21010;SDS011;10663;42.714;23.274;2022-11-24T06:02:09;38.42;;;24.73;;
21010;SDS011;10663;42.714;23.274;2022-11-24T06:03:40;40.60;;;25.30;;
21010;SDS011;10663;42.714;23.274;2022-11-24T06:05:11;39.72;;;28.33;;
21010;SDS011;10663;42.714;23.274;2022-11-24T06:06:41;49.55;;;32.47;;
21010;SDS011;10663;42.714;23.274;2022-11-24T06:08:13;56.38;;;38.17;;
21010;SDS011;10663;42.714;23.274;2022-11-24T06:09:44;57.20;;;35.85;;
21010;SDS011;10663;42.714;23.274;2022-11-24T06:11:15;50.50;;;34.88;;
21010;SDS011;10663;42.714;23.274;2022-11-24T06:12:49;56.95;;;35.83;;
21010;SDS011;10663;42.714;23.274;2022-11-24T06:14:20;55.85;;;36.13;;
21010;SDS011;10663;42.714;23.274;2022-11-24T06:15:53;48.38;;;30.90;;
21010;SDS011;10663;42.714;23.274;2022-11-24T06:17:24;52.45;;;32.10;;
21010;SDS011;10663;42.714;23.274;2022-11-24T06:18:55;52.83;;;32.65;;
21010;SDS011;10663;42.714;23.274;2022-11-24T06:20:26;50.83;;;32.55;;
21010;SDS011;10663;42.714;23.274;2022-11-24T06:21:57;55.15;;;34.17;;
21010;SDS011;10663;42.714;23.274;2022-11-24T06:23:28;52.58;;;33.03;;
21010;SDS011;10663;42.714;23.274;2022-11-24T06:24:59;56.33;;;33.10;;
21010;SDS011;10663;42.714;23.274;2022-11-24T06:26:30;48.25;;;29.17;;
21010;SDS011;10663;42.714;23.274;2022-11-24T06:28:02;46.15;;;29.42;;
21010;SDS011;10663;42.714;23.274;2022-11-24T06:29:34;48.27;;;29.00;;
21010;SDS011;10663;42.714;23.274;2022-11-24T06:31:05;42.07;;;24.50;;
21010;SDS011;10663;42.714;23.274;2022-11-24T06:32:35;41.47;;;28.17;;
21010;SDS011;10663;42.714;23.274;2022-11-24T06:34:07;50.25;;;30.80;;
21010;SDS011;10663;42.714;23.274;2022-11-24T06:35:40;46.35;;;29.38;;
21010;SDS011;10663;42.714;23.274;2022-11-24T06:37:14;45.10;;;29.93;;
21010;SDS011;10663;42.714;23.274;2022-11-24T06:38:45;44.88;;;26.75;;
21010;SDS011;10663;42.714;23.274;2022-11-24T06:40:15;42.35;;;27.00;;
21010;SDS011;10663;42.714;23.274;2022-11-24T06:41:48;37.75;;;23.73;;
21010;SDS011;10663;42.714;23.274;2022-11-24T06:43:20;40.70;;;25.77;;
21010;SDS011;10663;42.714;23.274;2022-11-24T06:44:52;60.47;;;44.97;;
21010;SDS011;10663;42.714;23.274;2022-11-24T06:46:23;57.10;;;40.67;;
21010;SDS011;10663;42.714;23.274;2022-11-24T06:47:54;55.72;;;37.22;;
21010;SDS011;10663;42.714;23.274;2022-11-24T06:49:25;46.17;;;30.27;;
21010;SDS011;10663;42.714;23.274;2022-11-24T06:51:00;36.50;;;25.85;;
21010;SDS011;10663;42.714;23.274;2022-11-24T06:52:32;40.78;;;27.17;;
21010;SDS011;10663;42.714;23.274;2022-11-24T06:54:07;31.17;;;23.33;;
21010;SDS011;10663;42.714;23.274;2022-11-24T06:55:39;40.53;;;26.25;;
21010;SDS011;10663;42.714;23.274;2022-11-24T06:57:11;39.33;;;24.08;;
21010;SDS011;10663;42.714;23.274;2022-11-24T06:58:42;31.13;;;19.20;;
21010;SDS011;10663;42.714;23.274;2022-11-24T07:00:15;32.78;;;19.95;;
21010;SDS011;10663;42.714;23.274;2022-11-24T07:01:46;19.80;;;13.88;;
21010;SDS011;10663;42.714;23.274;2022-11-24T07:03:17;28.05;;;17.17;;
21010;SDS011;10663;42.714;23.274;2022-11-24T07:04:48;21.60;;;12.43;;
21010;SDS011;10663;42.714;23.274;2022-11-24T07:06:20;26.23;;;16.75;;
21010;SDS011;10663;42.714;23.274;2022-11-24T07:07:52;24.35;;;16.67;;
21010;SDS011;10663;42.714;23.274;2022-11-24T07:09:24;20.75;;;13.65;;
21010;SDS011;10663;42.714;23.274;2022-11-24T07:10:54;25.37;;;14.57;;
21010;SDS011;10663;42.714;23.274;2022-11-24T07:12:25;20.42;;;11.88;;
21010;SDS011;10663;42.714;23.274;2022-11-24T07:13:56;19.73;;;11.77;;
21010;SDS011;10663;42.714;23.274;2022-11-24T07:15:27;23.85;;;13.75;;
21010;SDS011;10663;42.714;23.274;2022-11-24T07:16:58;21.45;;;12.02;;
21010;SDS011;10663;42.714;23.274;2022-11-24T07:18:30;21.50;;;12.93;;
21010;SDS011;10663;42.714;23.274;2022-11-24T07:20:00;21.67;;;13.27;;
21010;SDS011;10663;42.714;23.274;2022-11-24T07:21:31;22.15;;;13.90;;
21010;SDS011;10663;42.714;23.274;2022-11-24T07:23:02;20.70;;;13.25;;
21010;SDS011;10663;42.714;23.274;2022-11-24T07:24:33;21.20;;;15.30;;
21010;SDS011;10663;42.714;23.274;2022-11-24T07:26:05;19.38;;;13.35;;
21010;SDS011;10663;42.714;23.274;2022-11-24T07:27:36;17.42;;;12.68;;
21010;SDS011;10663;42.714;23.274;2022-11-24T07:29:07;16.80;;;12.45;;
21010;SDS011;10663;42.714;23.274;2022-11-24T07:30:38;18.52;;;12.88;;
21010;SDS011;10663;42.714;23.274;2022-11-24T07:32:09;15.65;;;12.60;;
21010;SDS011;10663;42.714;23.274;2022-11-24T07:33:40;17.00;;;12.68;;
21010;SDS011;10663;42.714;23.274;2022-11-24T07:35:11;14.70;;;11.73;;
21010;SDS011;10663;42.714;23.274;2022-11-24T07:36:41;19.05;;;12.95;;
21010;SDS011;10663;42.714;23.274;2022-11-24T07:38:14;17.87;;;12.93;;
21010;SDS011;10663;42.714;23.274;2022-11-24T07:39:45;16.67;;;13.40;;
21010;SDS011;10663;42.714;23.274;2022-11-24T07:41:16;17.67;;;13.45;;
21010;SDS011;10663;42.714;23.274;2022-11-24T07:42:49;19.15;;;13.32;;
21010;SDS011;10663;42.714;23.274;2022-11-24T07:44:20;18.97;;;12.97;;
21010;SDS011;10663;42.714;23.274;2022-11-24T07:45:51;17.17;;;13.30;;
21010;SDS011;10663;42.714;23.274;2022-11-24T07:47:22;16.73;;;13.23;;
21010;SDS011;10663;42.714;23.274;2022-11-24T07:48:52;19.87;;;13.57;;
21010;SDS011;10663;42.714;23.274;2022-11-24T07:50:23;16.77;;;13.23;;
21010;SDS011;10663;42.714;23.274;2022-11-24T07:51:54;15.90;;;12.63;;
21010;SDS011;10663;42.714;23.274;2022-11-24T07:53:26;16.30;;;13.10;;
21010;SDS011;10663;42.714;23.274;2022-11-24T07:54:57;19.02;;;12.98;;
21010;SDS011;10663;42.714;23.274;2022-11-24T07:56:28;13.67;;;11.20;;
21010;SDS011;10663;42.714;23.274;2022-11-24T07:57:59;15.18;;;12.07;;
21010;SDS011;10663;42.714;23.274;2022-11-24T07:59:31;16.23;;;11.73;;
21010;SDS011;10663;42.714;23.274;2022-11-24T08:01:11;14.70;;;11.47;;
21010;SDS011;10663;42.714;23.274;2022-11-24T08:02:44;14.65;;;10.80;;
21010;SDS011;10663;42.714;23.274;2022-11-24T08:04:15;15.13;;;10.90;;
21010;SDS011;10663;42.714;23.274;2022-11-24T08:05:55;13.70;;;10.90;;
21010;SDS011;10663;42.714;23.274;2022-11-24T08:07:28;12.95;;;10.80;;
21010;SDS011;10663;42.714;23.274;2022-11-24T08:08:58;16.52;;;10.95;;
21010;SDS011;10663;42.714;23.274;2022-11-24T08:10:29;13.13;;;10.23;;
21010;SDS011;10663;42.714;23.274;2022-11-24T08:12:00;12.48;;;10.00;;
21010;SDS011;10663;42.714;23.274;2022-11-24T08:13:32;13.47;;;9.83;;
21010;SDS011;10663;42.714;23.274;2022-11-24T08:15:04;13.48;;;10.18;;
21010;SDS011;10663;42.714;23.274;2022-11-24T08:16:36;16.15;;;10.38;;
21010;SDS011;10663;42.714;23.274;2022-11-24T08:18:08;14.15;;;10.25;;
21010;SDS011;10663;42.714;23.274;2022-11-24T08:19:39;13.30;;;9.73;;
21010;SDS011;10663;42.714;23.274;2022-11-24T08:21:11;12.63;;;10.10;;
21010;SDS011;10663;42.714;23.274;2022-11-24T08:22:43;12.27;;;9.10;;
21010;SDS011;10663;42.714;23.274;2022-11-24T08:24:14;13.15;;;9.30;;
21010;SDS011;10663;42.714;23.274;2022-11-24T08:25:47;10.35;;;8.57;;
21010;SDS011;10663;42.714;23.274;2022-11-24T08:27:18;10.20;;;8.77;;
21010;SDS011;10663;42.714;23.274;2022-11-24T08:28:51;11.75;;;8.95;;
21010;SDS011;10663;42.714;23.274;2022-11-24T08:30:24;10.30;;;8.18;;
21010;SDS011;10663;42.714;23.274;2022-11-24T08:31:55;9.82;;;7.68;;
21010;SDS011;10663;42.714;23.274;2022-11-24T08:33:27;10.65;;;8.18;;
21010;SDS011;10663;42.714;23.274;2022-11-24T08:34:58;9.40;;;7.13;;
21010;SDS011;10663;42.714;23.274;2022-11-24T08:36:28;10.95;;;8.07;;
21010;SDS011;10663;42.714;23.274;2022-11-24T08:38:00;8.82;;;7.00;;
21010;SDS011;10663;42.714;23.274;2022-11-24T08:39:31;9.43;;;7.05;;
21010;SDS011;10663;42.714;23.274;2022-11-24T08:41:03;9.90;;;7.75;;
21010;SDS011;10663;42.714;23.274;2022-11-24T08:42:35;8.68;;;5.85;;
21010;SDS011;10663;42.714;23.274;2022-11-24T08:44:06;8.27;;;6.55;;
21010;SDS011;10663;42.714;23.274;2022-11-24T08:45:39;6.15;;;4.53;;
21010;SDS011;10663;42.714;23.274;2022-11-24T08:47:10;4.20;;;3.70;;
21010;SDS011;10663;42.714;23.274;2022-11-24T08:48:41;5.45;;;4.28;;
21010;SDS011;10663;42.714;23.274;2022-11-24T08:50:13;4.80;;;3.45;;
21010;SDS011;10663;42.714;23.274;2022-11-24T08:51:44;4.47;;;3.67;;
21010;SDS011;10663;42.714;23.274;2022-11-24T08:53:17;4.32;;;3.63;;
21010;SDS011;10663;42.714;23.274;2022-11-24T08:54:48;4.45;;;3.45;;
21010;SDS011;10663;42.714;23.274;2022-11-24T08:56:19;3.90;;;3.50;;